Humidity-temperature Sensor

Selected Measurement Type: Relative Humidity

 
Relative Humidity [%]     6 entries per hour
Showing data from 4/19/2015 (00:00:00 Z) to 4/18/2015 (00:00:00 Z)
Previous Next [ Day | 3-Days | 7-Days ]
First Last
Prev [ Day | 3-Days | 7-Days ] Next
First Last

Start Time:     :
End Time:     :     
Time (in GMT) :00 :50 :40 :30 :20 :10
Previous Next [ Day | 3-Days | 7-Days ]
First Last
Prev [ Day | 3-Days | 7-Days ] Next
First Last


123 => good data
MM => data is determined as missing
-- => data not received/configured
Back to Top Back to Top
4/19/2015 00:00 to 23:10 83.74 84.03 82.86 82.48 82.25 81.77
4/18/2015 23:00 to 22:10 82.69 81.77 81.54 82.65 82.78 83.34
4/18/2015 22:00 to 21:10 82.88 83.15 83.05 83.42 84.24 84.76
4/18/2015 21:00 to 20:10 85.64 85.66 86.18 85.12 84.72 85.85
4/18/2015 20:00 to 19:10 86.25 86.12 87.19 86.25 85.66 85.10
4/18/2015 19:00 to 18:10 85.39 84.89 84.05 83.78 83.44 83.05
4/18/2015 18:00 to 17:10 83.34 83.47 83.82 83.86 84.51 85.05
4/18/2015 17:00 to 16:10 85.43 85.79 85.43 84.95 83.86 83.32
4/18/2015 16:00 to 15:10 83.09 85.54 85.95 85.43 86.12 85.41
4/18/2015 15:00 to 14:10 83.34 85.31 85.16 85.74 84.82 86.50
4/18/2015 14:00 to 13:10 87.56 87.67 87.25 86.73 87.38 87.23
4/18/2015 13:00 to 12:10 87.84 88.25 88.67 89.15 88.92 89.22
4/18/2015 12:00 to 11:10 88.99 89.32 88.96 88.69 88.99 89.07
4/18/2015 11:00 to 10:10 89.26 89.47 89.15 89.61 89.76 89.57
4/18/2015 10:00 to 9:10 88.88 89.32 90.80 91.47 90.20 90.26
4/18/2015 09:00 to 8:10 90.18 90.22 89.97 90.09 90.20 89.93
4/18/2015 08:00 to 7:10 89.76 89.36 89.63 89.70 90.53 91.31
4/18/2015 07:00 to 6:10 91.24 90.83 91.37 91.41 92.25 92.50
4/18/2015 06:00 to 5:10 92.56 92.58 90.45 88.99 87.86 87.61
4/18/2015 05:00 to 4:10 86.96 86.37 86.31 86.77 86.04 86.16
4/18/2015 04:00 to 3:10 86.89 88.07 88.27 88.13 89.68 90.32
4/18/2015 03:00 to 2:10 90.22 90.18 89.88 89.51 88.84 88.38
4/18/2015 02:00 to 1:10 87.90 87.56 88.50 90.24 89.86 88.19
4/18/2015 01:00 to 0:10 88.25 88.84 88.94 89.34 88.84 87.81